Portada
METAR-TAF:

METAR-TAF

Aeropuertos :

Pian Rosa, Italia

latitud: 45-56N, longitud: 007-42E, altitud: 3480 m

Observación

El informe se hizo hace 26 minutos, a las 01:55 UTC
Viento 7 kt del oeste-noroeste
Temperatura -21°C
Humedad 92%
Presión 999 hPa
Visibilidad: 0100 m
poca nieve, niebla engelante

METAR: LIMH 270155Z 30007KT 0100 -SN FZFG VV/// M21/M22 Q0999 RMK MON INVIS VAL INVIS VIS MIN 0100

Hora: 03:21 (02:21 UTC)


TAF: falta

Observaciones y pronósticos meteorológicos de más de 4000 aeropuertos (mensajes METAR y TAF).

Los puntos amarillos y rojos representan las estaciones disponibles.

Ponga el ratón en el punto deseado para ver el nombre de la estación.

Haga clic para ver las observaciones y los pronósticos meteorológicos.

Para cambiar el mapa : haga clic en los botones verdes con una cruz de color negro para hacer un zoom, en el botón verde con un guión para alejar o en las flechas verdes para mapas adyacentes.


METAR-TAF: